Terminal Aerodrome Forecast
Issued by NWS

Home | Current Version | Previous Version | Graphics & Text | Print | Product List | Glossary On
Versions: 1 2 3 4 5 6 7 8 9 10 11 12 13 14 15 16 17
000
FTUS43 KPAH 202043 AAA
TAFCGI
TAF AMD
KCGI 202043Z 2021/2118 27008G15KT P6SM -SHRA SCT040 BKN100
     FM202300 18004KT P6SM FEW250
     FM210700 00000KT 3SM BR BCFG FEW250
     FM211400 19005KT P6SM SCT040=

USA.gov is the U.S. government's official web portal to all federal, state and local government web resources and services.